createdAt,value
2023-04-09T00:00:57.594Z,20.2500
2023-04-09T00:01:57.866Z,20.2800
2023-04-09T00:03:00.232Z,20.2600
2023-04-09T00:04:02.748Z,20.2600
2023-04-09T00:05:02.827Z,20.2500
2023-04-09T00:06:05.155Z,20.2400
2023-04-09T00:07:07.553Z,20.2300
2023-04-09T00:08:07.827Z,20.2400
2023-04-09T00:09:10.182Z,20.2400
2023-04-09T00:10:12.621Z,20.2700
2023-04-09T00:11:12.813Z,20.2600
2023-04-09T00:12:15.253Z,20.2500
2023-04-09T00:13:25.319Z,20.2600
2023-04-09T00:14:17.795Z,20.2600
2023-04-09T00:15:30.058Z,20.2500
2023-04-09T00:16:22.534Z,20.2400
2023-04-09T00:17:22.790Z,20.2400
2023-04-09T00:18:25.114Z,20.2300
2023-04-09T00:19:27.494Z,20.2300
2023-04-09T00:20:27.745Z,20.2400
2023-04-09T00:21:30.130Z,20.2200
2023-04-09T00:22:32.451Z,20.2300
2023-04-09T00:23:32.654Z,20.2300
2023-04-09T00:24:35.003Z,20.2500
2023-04-09T00:25:37.391Z,20.2100
2023-04-09T00:26:37.613Z,20.2100
2023-04-09T00:27:40.038Z,20.2200
2023-04-09T00:28:42.396Z,20.2200
2023-04-09T00:29:42.593Z,20.2100
2023-04-09T00:30:44.951Z,20.2600
2023-04-09T00:31:47.364Z,20.2700
2023-04-09T00:32:47.598Z,20.2900
2023-04-09T00:33:49.904Z,20.3100
2023-04-09T00:34:52.220Z,20.2900
2023-04-09T00:35:52.468Z,20.3000
2023-04-09T00:36:54.758Z,20.2900
2023-04-09T00:37:57.093Z,20.2700
2023-04-09T00:38:57.290Z,20.2500
2023-04-09T00:39:59.654Z,20.2700
2023-04-09T00:41:01.970Z,20.3000
2023-04-09T00:42:04.327Z,20.3100
2023-04-09T00:43:06.661Z,20.3200
2023-04-09T00:44:09.013Z,20.3200
2023-04-09T00:45:11.304Z,20.3100
2023-04-09T00:46:13.745Z,20.2800
2023-04-09T00:47:16.052Z,20.2800
2023-04-09T00:48:16.316Z,20.2800
2023-04-09T00:49:18.726Z,20.3000
2023-04-09T00:50:21.081Z,20.3100
2023-04-09T00:51:21.268Z,20.3400
2023-04-09T00:52:23.622Z,20.3200
2023-04-09T00:53:25.984Z,20.3000
2023-04-09T00:54:26.229Z,20.3200
2023-04-09T00:55:28.562Z,20.3300
2023-04-09T00:56:30.960Z,20.3100
2023-04-09T00:57:31.183Z,20.3200
2023-04-09T00:58:33.600Z,20.3100
2023-04-09T00:59:35.963Z,20.3100
2023-04-09T01:00:36.191Z,20.3200
2023-04-09T01:01:38.606Z,20.3200
2023-04-09T01:02:41.219Z,20.3400
2023-04-09T01:03:41.275Z,20.3300
2023-04-09T01:04:43.616Z,20.3100
2023-04-09T01:05:45.969Z,20.2900
2023-04-09T01:06:48.340Z,20.3000
2023-04-09T01:07:50.629Z,20.3000
2023-04-09T01:08:53.118Z,20.3000
2023-04-09T01:09:55.254Z,20.2900
2023-04-09T01:10:57.574Z,20.2900
2023-04-09T01:11:59.922Z,20.2900
2023-04-09T01:13:02.356Z,20.2800
2023-04-09T01:14:04.702Z,20.2800
2023-04-09T01:15:04.947Z,20.2800
2023-04-09T01:16:07.343Z,20.2900
2023-04-09T01:17:09.675Z,20.2700
2023-04-09T01:18:09.887Z,20.2700
2023-04-09T01:19:12.289Z,20.2800
2023-04-09T01:20:14.799Z,20.2900
2023-04-09T01:21:14.889Z,20.2800
2023-04-09T01:22:17.263Z,20.2800
2023-04-09T01:23:19.679Z,20.2800
2023-04-09T01:24:19.875Z,20.2700
2023-04-09T01:25:22.363Z,20.2800
2023-04-09T01:26:24.600Z,20.2800
2023-04-09T01:27:24.842Z,20.2900
2023-04-09T01:28:27.207Z,20.3200
2023-04-09T01:29:29.618Z,20.3200
2023-04-09T01:30:29.941Z,20.3300
2023-04-09T01:31:32.177Z,20.3300
2023-04-09T01:32:34.553Z,20.3300
2023-04-09T01:33:34.761Z,20.3300
2023-04-09T01:34:37.140Z,20.3400
2023-04-09T01:35:39.573Z,20.3400
2023-04-09T01:36:39.741Z,20.3400
2023-04-09T01:37:42.162Z,20.3400
2023-04-09T01:38:42.543Z,20.3500
2023-04-09T01:39:44.818Z,20.3400
2023-04-09T01:40:47.346Z,20.3400
2023-04-09T01:41:47.492Z,20.3200
2023-04-09T01:42:49.860Z,20.3400
2023-04-09T01:43:52.257Z,20.3500
2023-04-09T01:44:52.505Z,20.3500
2023-04-09T01:45:54.954Z,20.3200
2023-04-09T01:46:57.286Z,20.3000
2023-04-09T01:47:57.623Z,20.3000
2023-04-09T01:48:59.917Z,20.2900
2023-04-09T01:50:02.485Z,20.3000
2023-04-09T01:51:02.583Z,20.3000
2023-04-09T01:52:04.965Z,20.3200
2023-04-09T01:53:07.369Z,20.3200
2023-04-09T01:54:09.798Z,20.3300
2023-04-09T01:55:12.194Z,20.3300
2023-04-09T01:56:12.590Z,20.3200
2023-04-09T01:57:14.854Z,20.3300
2023-04-09T01:58:17.262Z,20.3300
2023-04-09T01:59:19.647Z,20.3100
2023-04-09T02:00:22.092Z,20.3200
2023-04-09T02:01:22.488Z,20.3000
2023-04-09T02:02:24.838Z,20.3100
2023-04-09T02:03:27.222Z,20.3100
2023-04-09T02:04:27.333Z,20.3100
2023-04-09T02:05:29.644Z,20.3200
2023-04-09T02:06:32.035Z,20.3300
2023-04-09T02:07:32.199Z,20.3300
2023-04-09T02:08:34.631Z,20.2800
2023-04-09T02:09:37.014Z,20.2700
2023-04-09T02:10:37.232Z,20.3000
2023-04-09T02:11:39.616Z,20.3100
2023-04-09T02:12:41.993Z,20.3300
2023-04-09T02:13:42.232Z,20.3300
2023-04-09T02:14:44.598Z,20.3200
2023-04-09T02:15:46.997Z,20.3100
2023-04-09T02:16:47.226Z,20.3100
2023-04-09T02:17:49.659Z,20.3200
2023-04-09T02:18:52.207Z,20.3300
2023-04-09T02:19:52.198Z,20.3400
2023-04-09T02:20:54.595Z,20.3400
2023-04-09T02:21:56.981Z,20.3100
2023-04-09T02:22:59.371Z,20.3300
2023-04-09T02:24:01.751Z,20.3100
2023-04-09T02:25:01.987Z,20.3000
2023-04-09T02:26:04.291Z,20.3000
2023-04-09T02:27:06.650Z,20.3200
2023-04-09T02:28:08.972Z,20.3000
2023-04-09T02:29:11.290Z,20.3200
2023-04-09T02:30:13.641Z,20.3300
2023-04-09T02:31:13.952Z,20.3100
2023-04-09T02:32:16.217Z,20.3100
2023-04-09T02:33:18.603Z,20.3300
2023-04-09T02:34:18.825Z,20.3300
2023-04-09T02:35:21.224Z,20.3300
2023-04-09T02:36:23.594Z,20.3200
2023-04-09T02:37:23.862Z,20.3100
2023-04-09T02:38:26.182Z,20.3100
2023-04-09T02:39:28.562Z,20.3000
2023-04-09T02:40:28.814Z,20.3200
2023-04-09T02:41:31.225Z,20.3300
2023-04-09T02:42:33.588Z,20.3200
2023-04-09T02:43:33.815Z,20.3200
2023-04-09T02:44:36.195Z,20.3200
2023-04-09T02:45:38.548Z,20.3000
2023-04-09T02:46:38.814Z,20.2800
2023-04-09T02:47:41.306Z,20.2800
2023-04-09T02:48:43.421Z,20.3000
2023-04-09T02:49:43.656Z,20.3100
2023-04-09T02:50:46.037Z,20.3200
2023-04-09T02:51:48.381Z,20.3000
2023-04-09T02:52:48.600Z,20.3100
2023-04-09T02:53:50.967Z,20.3300
2023-04-09T02:54:53.357Z,20.3300
2023-04-09T02:55:53.530Z,20.3400
2023-04-09T02:56:55.867Z,20.3000
2023-04-09T02:57:58.394Z,20.2900
2023-04-09T02:59:00.615Z,20.2900
2023-04-09T03:00:02.953Z,20.2600
2023-04-09T03:01:05.309Z,20.2800
2023-04-09T03:02:05.606Z,20.2800
2023-04-09T03:03:08.040Z,20.2900
2023-04-09T03:04:10.341Z,20.2900
2023-04-09T03:05:12.524Z,20.3100
2023-04-09T03:06:14.779Z,20.2900
2023-04-09T03:07:17.025Z,20.2900
2023-04-09T03:08:19.329Z,20.3000
2023-04-09T03:09:19.377Z,20.3000
2023-04-09T03:10:21.577Z,20.2800
2023-04-09T03:11:23.813Z,20.2700
2023-04-09T03:12:26.080Z,20.2500
2023-04-09T03:13:28.340Z,20.2300
2023-04-09T03:14:28.401Z,20.2400
2023-04-09T03:15:30.615Z,20.2600
2023-04-09T03:16:32.880Z,20.2800
2023-04-09T03:17:35.158Z,20.2700
2023-04-09T03:18:37.492Z,20.2600
2023-04-09T03:19:39.673Z,20.2500
2023-04-09T03:20:42.048Z,20.2400
2023-04-09T03:21:42.273Z,20.2400
2023-04-09T03:22:44.612Z,20.2300
2023-04-09T03:23:47.043Z,20.2600
2023-04-09T03:24:49.250Z,20.2600
2023-04-09T03:25:51.615Z,20.2300
2023-04-09T03:26:53.970Z,20.2300
2023-04-09T03:27:54.168Z,20.2300
2023-04-09T03:28:56.647Z,20.2600
2023-04-09T03:29:58.896Z,20.2600
2023-04-09T03:30:59.155Z,20.2600
2023-04-09T03:32:01.502Z,20.2400
2023-04-09T03:33:03.961Z,20.2300
2023-04-09T03:34:04.076Z,20.2100
2023-04-09T03:35:06.377Z,20.2200
2023-04-09T03:36:08.731Z,20.2100
2023-04-09T03:37:11.094Z,20.2300
2023-04-09T03:38:13.440Z,20.2200
2023-04-09T03:39:15.837Z,20.2200
2023-04-09T03:40:16.021Z,20.2200
2023-04-09T03:41:18.360Z,20.2500
2023-04-09T03:42:20.704Z,20.2600
2023-04-09T03:43:23.042Z,20.2700
2023-04-09T03:44:25.328Z,20.2800
2023-04-09T03:45:27.626Z,20.2700
2023-04-09T03:46:30.000Z,20.2700
2023-04-09T03:47:32.232Z,20.2700
2023-04-09T03:48:34.539Z,20.2700
2023-04-09T03:49:36.916Z,20.2800
2023-04-09T03:50:39.223Z,20.2700
2023-04-09T03:51:41.579Z,20.2900
2023-04-09T03:52:43.941Z,20.2700
2023-04-09T03:53:46.301Z,20.2600
2023-04-09T03:54:48.641Z,20.2500
2023-04-09T03:55:48.840Z,20.2800
2023-04-09T03:56:51.180Z,20.2900
2023-04-09T03:57:53.541Z,20.2800
2023-04-09T03:58:54.085Z,20.2900
2023-04-09T03:59:56.154Z,20.3000
2023-04-09T04:00:58.416Z,20.2700
2023-04-09T04:02:00.888Z,20.2500
2023-04-09T04:03:03.376Z,20.2600
2023-04-09T04:04:05.630Z,20.2600
2023-04-09T04:05:07.790Z,20.2800
2023-04-09T04:06:10.129Z,20.2900
2023-04-09T04:07:12.498Z,20.2800
2023-04-09T04:08:12.711Z,20.2600
2023-04-09T04:09:15.112Z,20.2600
2023-04-09T04:10:17.464Z,20.2500
2023-04-09T04:11:17.652Z,20.2600
2023-04-09T04:12:19.997Z,20.2700
2023-04-09T04:13:22.392Z,20.2500
2023-04-09T04:14:22.572Z,20.2400
2023-04-09T04:15:24.918Z,20.2500
2023-04-09T04:16:27.265Z,20.2700
2023-04-09T04:17:29.662Z,20.3000
2023-04-09T04:18:31.967Z,20.2600
2023-04-09T04:19:34.344Z,20.2600
2023-04-09T04:20:34.524Z,20.2600
2023-04-09T04:21:36.805Z,20.2800
2023-04-09T04:22:39.163Z,20.2700
2023-04-09T04:23:41.470Z,20.2700
2023-04-09T04:24:43.782Z,20.2800
2023-04-09T04:25:46.143Z,20.3000
2023-04-09T04:26:48.449Z,20.2700
2023-04-09T04:27:50.792Z,20.2700
2023-04-09T04:28:53.418Z,20.2500
2023-04-09T04:29:53.333Z,20.2700
2023-04-09T04:30:55.693Z,20.2500
2023-04-09T04:31:58.114Z,20.2700
2023-04-09T04:33:00.450Z,20.2900
2023-04-09T04:34:02.744Z,20.2900
2023-04-09T04:35:05.115Z,20.3000
2023-04-09T04:36:05.367Z,20.2800
2023-04-09T04:37:07.647Z,20.2700
2023-04-09T04:38:10.013Z,20.2900
2023-04-09T04:39:10.207Z,20.2800
2023-04-09T04:40:12.573Z,20.3000
2023-04-09T04:41:14.948Z,20.2900
2023-04-09T04:42:17.290Z,20.3000
2023-04-09T04:43:19.635Z,20.2800
2023-04-09T04:44:21.929Z,20.2700
2023-04-09T04:45:24.232Z,20.2700
2023-04-09T04:46:26.560Z,20.2700
2023-04-09T04:47:28.886Z,20.2700
2023-04-09T04:48:31.183Z,20.2500
2023-04-09T04:49:33.531Z,20.2600
2023-04-09T04:50:35.914Z,20.2600
2023-04-09T04:51:36.105Z,20.2600
2023-04-09T04:52:38.441Z,20.2700
2023-04-09T04:53:40.773Z,20.2700
2023-04-09T04:54:43.134Z,20.2800
2023-04-09T04:55:45.449Z,20.2700
2023-04-09T04:56:47.924Z,20.2700
2023-04-09T04:57:47.981Z,20.2700
2023-04-09T04:58:50.527Z,20.2600
2023-04-09T04:59:52.654Z,20.2600
2023-04-09T05:00:55.002Z,20.2600
2023-04-09T05:01:57.456Z,20.2700
2023-04-09T05:02:59.789Z,20.2400
2023-04-09T05:04:01.988Z,20.2400
2023-04-09T05:05:04.323Z,20.2700
2023-04-09T05:06:06.672Z,20.2800
2023-04-09T05:07:09.024Z,20.3000
2023-04-09T05:08:11.264Z,20.3000
2023-04-09T05:09:13.588Z,20.2900
2023-04-09T05:10:15.917Z,20.3000
2023-04-09T05:11:18.264Z,20.3300
2023-04-09T05:12:20.747Z,20.3300
2023-04-09T05:13:20.799Z,20.3400
2023-04-09T05:14:23.110Z,20.3400
2023-04-09T05:15:25.467Z,20.3400
2023-04-09T05:16:27.829Z,20.3500
2023-04-09T05:17:30.256Z,20.3600
2023-04-09T05:18:32.382Z,20.3400
2023-04-09T05:19:34.677Z,20.3200
2023-04-09T05:20:34.865Z,20.3100
2023-04-09T05:21:37.230Z,20.3000
2023-04-09T05:22:39.680Z,20.2900
2023-04-09T05:23:39.733Z,20.3000
2023-04-09T05:24:42.068Z,20.3000
2023-04-09T05:25:44.408Z,20.3100
2023-04-09T05:26:46.713Z,20.2800
2023-04-09T05:27:49.175Z,20.3100
2023-04-09T05:28:51.520Z,20.3000
2023-04-09T05:29:53.709Z,20.3000
2023-04-09T05:30:56.114Z,20.2900
2023-04-09T05:31:58.299Z,20.3000
2023-04-09T05:33:00.605Z,20.3300
2023-04-09T05:34:02.950Z,20.3200
2023-04-09T05:35:05.293Z,20.3100
2023-04-09T05:36:05.530Z,20.3100
2023-04-09T05:37:07.831Z,20.3000
2023-04-09T05:38:10.213Z,20.3000
2023-04-09T05:39:12.440Z,20.3200
2023-04-09T05:40:12.618Z,20.3400
2023-04-09T05:41:14.954Z,20.3400
2023-04-09T05:42:17.293Z,20.3400
2023-04-09T05:43:17.576Z,20.3100
2023-04-09T05:44:19.837Z,20.2900
2023-04-09T05:45:22.177Z,20.2600
2023-04-09T05:46:22.415Z,20.2500
2023-04-09T05:47:24.715Z,20.2400
2023-04-09T05:48:27.154Z,20.2500
2023-04-09T05:49:29.344Z,20.2600
2023-04-09T05:50:34.410Z,20.2600
2023-04-09T05:51:33.929Z,20.2000
2023-04-09T05:52:36.242Z,20.2000
2023-04-09T05:53:36.390Z,20.2000
2023-04-09T05:54:38.704Z,20.2200
2023-04-09T05:55:41.028Z,20.2100
2023-04-09T05:56:43.371Z,20.2100
2023-04-09T05:57:45.731Z,20.2100
2023-04-09T05:58:48.155Z,20.2000
2023-04-09T05:59:48.201Z,20.1900
2023-04-09T06:00:50.560Z,20.1900
2023-04-09T06:01:53.040Z,20.1700
2023-04-09T06:02:55.373Z,20.1800
2023-04-09T06:03:58.787Z,20.1900
2023-04-09T06:05:00.037Z,20.1900
2023-04-09T06:06:02.259Z,20.2000
2023-04-09T06:07:04.597Z,20.1800
2023-04-09T06:08:06.976Z,20.2000
2023-04-09T06:09:07.199Z,20.2100
2023-04-09T06:10:09.523Z,20.2100
2023-04-09T06:11:11.860Z,20.2200
2023-04-09T06:12:12.052Z,20.2500
2023-04-09T06:13:14.428Z,20.2600
2023-04-09T06:14:16.814Z,20.2500
2023-04-09T06:15:17.044Z,20.2600
2023-04-09T06:16:19.563Z,20.2500
2023-04-09T06:17:21.827Z,20.2700
2023-04-09T06:18:22.049Z,20.3200
2023-04-09T06:19:24.470Z,20.3500
2023-04-09T06:20:26.811Z,20.3700
2023-04-09T06:21:27.065Z,20.3900
2023-04-09T06:22:29.421Z,20.3900
2023-04-09T06:23:31.803Z,20.4200
2023-04-09T06:24:32.061Z,20.4600
2023-04-09T06:25:34.344Z,20.4700
2023-04-09T06:26:36.720Z,20.4200
2023-04-09T06:27:36.926Z,20.3700
2023-04-09T06:28:39.274Z,20.4100
2023-04-09T06:29:41.736Z,20.4600
2023-04-09T06:30:41.836Z,20.4400
2023-04-09T06:31:44.188Z,20.4500
2023-04-09T06:32:54.660Z,20.4600
2023-04-09T06:33:48.771Z,20.4800
2023-04-09T06:34:51.175Z,20.4900
2023-04-09T06:35:53.469Z,20.5000
2023-04-09T06:36:55.740Z,20.5000
2023-04-09T06:37:58.065Z,20.4500
2023-04-09T06:39:00.358Z,20.4700
2023-04-09T06:40:02.725Z,20.4800
2023-04-09T06:41:02.723Z,20.4800
2023-04-09T06:42:05.069Z,20.5100
2023-04-09T06:43:07.326Z,20.5500
2023-04-09T06:44:09.639Z,20.5700
2023-04-09T06:45:11.970Z,20.5900
2023-04-09T06:46:14.310Z,20.6300
2023-04-09T06:47:16.624Z,20.6600
2023-04-09T06:48:18.973Z,20.6800
2023-04-09T06:49:21.239Z,20.7100
2023-04-09T06:50:23.649Z,20.7200
2023-04-09T06:51:23.720Z,20.7200
2023-04-09T06:52:26.051Z,20.7300
2023-04-09T06:53:28.405Z,20.7600
2023-04-09T06:54:28.588Z,20.7800
2023-04-09T06:55:30.995Z,20.8100
2023-04-09T06:56:33.243Z,20.8100
2023-04-09T06:57:35.553Z,20.8300
2023-04-09T06:58:38.105Z,20.8500
2023-04-09T06:59:40.142Z,20.8600
2023-04-09T07:00:42.566Z,20.8700
2023-04-09T07:01:44.809Z,20.8600
2023-04-09T07:02:47.327Z,20.8900
2023-04-09T07:03:49.546Z,20.8900
2023-04-09T07:04:51.743Z,20.8900
2023-04-09T07:05:54.093Z,20.9200
2023-04-09T07:06:56.278Z,20.9300
2023-04-09T07:07:56.441Z,20.9100
2023-04-09T07:08:58.727Z,20.9200
2023-04-09T07:10:01.012Z,20.9400
2023-04-09T07:11:03.415Z,20.9400
2023-04-09T07:12:03.477Z,20.9500
2023-04-09T07:13:05.769Z,20.9400
2023-04-09T07:14:08.066Z,20.9600
2023-04-09T07:15:08.227Z,20.9700
2023-04-09T07:16:10.553Z,20.9900
2023-04-09T07:17:12.831Z,20.9900
2023-04-09T07:18:15.137Z,21.0100
2023-04-09T07:19:15.285Z,21.0300
2023-04-09T07:20:17.564Z,21.0700
2023-04-09T07:21:19.900Z,21.0600
2023-04-09T07:22:22.197Z,21.0800
2023-04-09T07:23:24.491Z,21.0800
2023-04-09T07:24:26.813Z,21.0800
2023-04-09T07:25:29.101Z,21.0700
2023-04-09T07:26:29.277Z,21.0800
2023-04-09T07:27:31.586Z,21.0700
2023-04-09T07:28:33.862Z,21.0700
2023-04-09T07:29:36.166Z,21.0700
2023-04-09T07:30:38.464Z,21.1000
2023-04-09T07:31:40.803Z,21.1200
2023-04-09T07:32:43.011Z,21.1400
2023-04-09T07:33:43.155Z,21.1500
2023-04-09T07:34:45.459Z,21.1700
2023-04-09T07:35:47.803Z,21.2000
2023-04-09T07:36:48.067Z,21.2400
2023-04-09T07:37:50.238Z,21.2300
2023-04-09T07:38:52.827Z,21.2700
2023-04-09T07:39:54.935Z,21.2600
2023-04-09T07:40:55.001Z,21.2700
2023-04-09T07:41:57.408Z,21.3000
2023-04-09T07:42:59.612Z,21.3100
2023-04-09T07:44:01.836Z,21.3300
2023-04-09T07:45:01.980Z,21.3400
2023-04-09T07:46:04.210Z,21.3500
2023-04-09T07:47:06.553Z,21.3700
2023-04-09T07:48:08.770Z,21.3900
2023-04-09T07:49:08.926Z,21.3900
2023-04-09T07:50:11.235Z,21.3700
2023-04-09T07:51:13.532Z,21.3600
2023-04-09T07:52:15.931Z,21.3500
2023-04-09T07:53:18.053Z,21.3600
2023-04-09T07:54:20.314Z,21.3800
2023-04-09T07:55:22.623Z,21.3900
2023-04-09T07:56:22.858Z,21.4100
2023-04-09T07:57:25.122Z,21.3900
2023-04-09T07:58:27.413Z,21.3800
2023-04-09T07:59:29.749Z,21.3800
2023-04-09T08:00:32.087Z,21.3700
2023-04-09T08:01:34.394Z,21.3800
2023-04-09T08:02:36.845Z,21.3400
2023-04-09T08:03:39.160Z,21.3100
2023-04-09T08:04:41.425Z,21.3000
2023-04-09T08:05:43.577Z,21.2500
2023-04-09T08:06:45.885Z,21.2400
2023-04-09T08:07:48.173Z,21.2400
2023-04-09T08:08:50.693Z,21.2400
2023-04-09T08:09:50.532Z,21.2400
2023-04-09T08:10:52.841Z,21.2200
2023-04-09T08:11:55.173Z,21.2000
2023-04-09T08:12:57.420Z,21.1800
2023-04-09T08:13:57.587Z,21.1600
2023-04-09T08:14:59.881Z,21.1600
2023-04-09T08:16:02.289Z,21.1400
2023-04-09T08:17:04.481Z,21.1300
2023-04-09T08:18:06.886Z,21.1400
2023-04-09T08:19:09.127Z,21.1400
2023-04-09T08:20:11.457Z,21.1500
2023-04-09T08:21:13.785Z,21.1200
2023-04-09T08:22:16.093Z,21.1100
2023-04-09T08:23:18.537Z,21.1200
2023-04-09T08:24:20.723Z,21.1100
2023-04-09T08:25:22.972Z,21.1100
2023-04-09T08:26:25.293Z,21.1100
2023-04-09T08:27:25.503Z,21.1000
2023-04-09T08:28:27.909Z,21.0900
2023-04-09T08:29:30.111Z,21.1100
2023-04-09T08:30:30.279Z,21.1400
2023-04-09T08:31:32.596Z,21.1300
2023-04-09T08:32:34.844Z,21.1500
2023-04-09T08:33:37.109Z,21.1500
2023-04-09T08:34:37.220Z,21.1500
2023-04-09T08:35:39.487Z,21.1600
2023-04-09T08:36:41.873Z,21.1500
2023-04-09T08:37:44.222Z,21.1600
2023-04-09T08:38:44.342Z,21.1600
2023-04-09T08:39:46.510Z,21.1700
2023-04-09T08:40:48.810Z,21.1800
2023-04-09T08:41:51.116Z,21.1700
2023-04-09T08:42:51.301Z,21.1700
2023-04-09T08:43:58.236Z,21.1700
2023-04-09T08:44:55.882Z,21.1900
2023-04-09T08:45:58.201Z,21.2000
2023-04-09T08:47:00.499Z,21.1800
2023-04-09T08:48:02.920Z,21.1900
2023-04-09T08:49:05.148Z,21.1800
2023-04-09T08:50:07.435Z,21.1900
2023-04-09T08:51:09.768Z,21.2100
2023-04-09T08:52:12.076Z,21.2300
2023-04-09T08:53:14.386Z,21.2000
2023-04-09T08:54:16.672Z,21.1600
2023-04-09T08:55:18.948Z,21.1600
2023-04-09T08:56:19.036Z,21.1700
2023-04-09T08:57:21.302Z,21.1600
2023-04-09T08:58:23.739Z,21.1800
2023-04-09T08:59:25.965Z,21.1900
2023-04-09T09:00:28.244Z,21.1800
2023-04-09T09:01:30.671Z,21.1800
2023-04-09T09:02:32.877Z,21.1700
2023-04-09T09:03:33.013Z,21.1800
2023-04-09T09:04:35.297Z,21.1800
2023-04-09T09:05:37.637Z,21.1900
2023-04-09T09:06:39.926Z,21.1800
2023-04-09T09:07:42.235Z,21.1700
2023-04-09T09:08:44.504Z,21.1700
2023-04-09T09:09:46.833Z,21.1800
2023-04-09T09:10:49.073Z,21.1900
2023-04-09T09:11:51.318Z,21.1900
2023-04-09T09:12:53.565Z,21.1800
2023-04-09T09:13:55.855Z,21.1800
2023-04-09T09:14:58.205Z,21.1800
2023-04-09T09:16:00.378Z,21.2000
2023-04-09T09:17:02.696Z,21.2100
2023-04-09T09:18:02.835Z,21.2000
2023-04-09T09:19:05.037Z,21.2100
2023-04-09T09:20:07.384Z,21.1800
2023-04-09T09:21:09.563Z,21.1800
2023-04-09T09:22:09.744Z,21.1700
2023-04-09T09:23:12.027Z,21.1800
2023-04-09T09:24:14.361Z,21.1700
2023-04-09T09:25:16.814Z,21.1800
2023-04-09T09:26:19.006Z,21.1900
2023-04-09T09:27:21.329Z,21.1900
2023-04-09T09:28:21.514Z,21.1900
2023-04-09T09:29:23.875Z,21.2100
2023-04-09T09:30:26.211Z,21.2100
2023-04-09T09:31:28.617Z,21.2200
2023-04-09T09:32:28.658Z,21.2100
2023-04-09T09:33:30.987Z,21.2100
2023-04-09T09:34:33.332Z,21.2100
2023-04-09T09:35:33.546Z,21.2100
2023-04-09T09:36:35.847Z,21.2200
2023-04-09T09:37:38.165Z,21.2000
2023-04-09T09:38:40.505Z,21.2000
2023-04-09T09:39:42.862Z,21.2100
2023-04-09T09:40:45.306Z,21.2200
2023-04-09T09:41:45.395Z,21.2300
2023-04-09T09:42:47.771Z,21.2100
2023-04-09T09:43:50.143Z,21.2200
2023-04-09T09:44:50.378Z,21.2400
2023-04-09T09:45:52.794Z,21.2500
2023-04-09T09:46:55.026Z,21.2700
2023-04-09T09:47:57.328Z,21.2700
2023-04-09T09:48:59.672Z,21.2700
2023-04-09T09:50:02.022Z,21.2800
2023-04-09T09:51:04.479Z,21.2900
2023-04-09T09:52:06.694Z,21.3000
2023-04-09T09:53:08.998Z,21.3100
2023-04-09T09:54:11.329Z,21.3200
2023-04-09T09:55:13.654Z,21.3000
2023-04-09T09:56:15.973Z,21.2900
2023-04-09T09:57:18.267Z,21.3100
2023-04-09T09:58:20.581Z,21.3400
2023-04-09T09:59:22.931Z,21.3600
2023-04-09T10:00:23.991Z,21.3200
2023-04-09T10:01:25.596Z,21.3200
2023-04-09T10:02:27.708Z,21.3500
2023-04-09T10:03:30.046Z,21.3700
2023-04-09T10:04:30.213Z,21.3300
2023-04-09T10:05:32.481Z,21.3400
2023-04-09T10:06:34.840Z,21.3300
2023-04-09T10:07:37.156Z,21.3500
2023-04-09T10:08:39.441Z,21.3900
2023-04-09T10:09:41.750Z,21.4200
2023-04-09T10:10:44.047Z,21.3900
2023-04-09T10:11:46.384Z,21.3900
2023-04-09T10:12:48.625Z,21.4300
2023-04-09T10:13:50.939Z,21.4500
2023-04-09T10:14:53.256Z,21.4400
2023-04-09T10:15:55.634Z,21.4400
2023-04-09T10:16:57.922Z,21.4600
2023-04-09T10:18:00.305Z,21.4400
2023-04-09T10:19:02.585Z,21.4500
2023-04-09T10:21:35.311Z,21.5600
2023-04-09T10:22:37.662Z,21.6300
2023-04-09T10:23:39.817Z,21.6900
2023-04-09T10:24:42.112Z,21.7400
2023-04-09T10:25:42.240Z,21.7500
2023-04-09T10:26:44.559Z,21.7700
2023-04-09T10:27:46.857Z,21.7700
2023-04-09T10:28:49.151Z,21.7700
2023-04-09T10:29:51.470Z,21.7800
2023-04-09T10:30:53.800Z,21.8000
2023-04-09T10:31:53.996Z,21.8200
2023-04-09T10:32:56.388Z,21.8300
2023-04-09T10:33:58.552Z,21.8000
2023-04-09T10:35:00.863Z,21.8000
2023-04-09T10:36:03.264Z,21.8000
2023-04-09T10:37:03.353Z,21.8000
2023-04-09T10:38:05.769Z,21.8200
2023-04-09T10:39:08.037Z,21.8900
2023-04-09T10:40:10.826Z,21.9200
2023-04-09T10:41:12.715Z,21.9000
2023-04-09T10:42:12.972Z,21.8800
2023-04-09T10:43:15.245Z,21.8500
2023-04-09T10:44:17.552Z,21.8500
2023-04-09T10:45:21.917Z,21.8700
2023-04-09T10:46:22.201Z,21.9100
2023-04-09T10:47:24.544Z,21.9100
2023-04-09T10:48:24.791Z,21.9100
2023-04-09T10:49:26.991Z,21.9100
2023-04-09T10:50:29.336Z,21.9200
2023-04-09T10:51:31.615Z,21.9400
2023-04-09T10:52:33.939Z,21.9500
2023-04-09T10:53:36.312Z,21.9800
2023-04-09T10:54:36.458Z,21.9900
2023-04-09T10:55:38.787Z,22.0200
2023-04-09T10:56:41.112Z,22.0300
2023-04-09T10:57:43.403Z,22.0600
2023-04-09T10:58:45.754Z,22.0600
2023-04-09T10:59:48.040Z,22.0900
2023-04-09T11:00:48.215Z,22.0800
2023-04-09T11:01:50.696Z,22.1100
2023-04-09T11:02:53.008Z,22.1200
2023-04-09T11:03:55.308Z,22.1200
2023-04-09T11:04:57.643Z,22.1300
2023-04-09T11:05:57.612Z,22.1200
2023-04-09T11:06:59.937Z,22.1200
2023-04-09T11:08:02.264Z,22.1400
2023-04-09T11:09:04.615Z,22.1600
2023-04-09T11:10:06.918Z,22.1600
2023-04-09T11:11:09.238Z,22.1600
2023-04-09T11:12:09.388Z,22.1700
2023-04-09T11:13:11.679Z,22.1700
2023-04-09T11:14:14.149Z,22.1900
2023-04-09T11:15:16.331Z,22.1800
2023-04-09T11:16:23.003Z,22.2000
2023-04-09T11:17:20.990Z,22.1600
2023-04-09T11:18:21.157Z,22.1900
2023-04-09T11:19:23.542Z,22.2000
2023-04-09T11:20:25.701Z,22.2000
2023-04-09T11:21:28.001Z,22.2100
2023-04-09T11:22:30.276Z,22.2400
2023-04-09T11:23:32.527Z,22.2200
2023-04-09T11:24:34.811Z,22.2100
2023-04-09T11:25:34.939Z,22.2000
2023-04-09T11:26:37.256Z,22.2000
2023-04-09T11:27:39.576Z,22.2100
2023-04-09T11:28:41.895Z,22.2100
2023-04-09T11:29:45.866Z,22.2300
2023-04-09T11:30:46.539Z,22.2400
2023-04-09T11:31:46.753Z,22.2500
2023-04-09T11:32:49.048Z,22.2600
2023-04-09T11:33:51.358Z,22.2800
2023-04-09T11:34:53.678Z,22.2700
2023-04-09T11:35:56.003Z,22.2800
2023-04-09T11:36:56.135Z,22.2800
2023-04-09T11:37:58.439Z,22.3000
2023-04-09T11:39:00.744Z,22.3000
2023-04-09T11:40:03.214Z,22.3200
2023-04-09T11:41:05.374Z,22.3300
2023-04-09T11:42:07.650Z,22.3400
2023-04-09T11:43:07.704Z,22.3600
2023-04-09T11:44:10.013Z,22.3800
2023-04-09T11:45:12.370Z,22.3900
2023-04-09T11:46:14.565Z,22.3900
2023-04-09T11:47:16.870Z,22.3900
2023-04-09T11:48:19.195Z,22.3900
2023-04-09T11:49:21.517Z,22.4000
2023-04-09T11:50:21.790Z,22.4200
2023-04-09T11:51:23.941Z,22.4200
2023-04-09T11:52:26.209Z,22.4400
2023-04-09T11:53:28.430Z,22.4500
2023-04-09T11:54:30.684Z,22.4700
2023-04-09T11:55:32.966Z,22.4700
2023-04-09T11:56:35.139Z,22.4800
2023-04-09T11:57:37.368Z,22.4900
2023-04-09T11:58:39.619Z,22.5100
2023-04-09T11:59:41.814Z,22.5000
2023-04-09T12:00:41.976Z,22.4900
2023-04-09T12:01:44.224Z,22.4900
2023-04-09T12:02:46.793Z,22.4900
2023-04-09T12:03:48.911Z,22.5000
2023-04-09T12:04:51.251Z,22.5200
2023-04-09T12:05:53.396Z,22.5400
2023-04-09T12:06:53.500Z,22.5600
2023-04-09T12:07:56.752Z,22.5600
2023-04-09T12:08:58.060Z,22.5500
2023-04-09T12:10:00.306Z,22.5600
2023-04-09T12:11:02.699Z,22.5700
2023-04-09T12:12:04.856Z,22.5800
2023-04-09T12:13:07.095Z,22.5900
2023-04-09T12:14:09.341Z,22.6000
2023-04-09T12:15:11.582Z,22.6200
2023-04-09T12:16:13.870Z,22.6300
2023-04-09T12:17:16.058Z,22.6300
2023-04-09T12:18:18.282Z,22.6400
2023-04-09T12:19:20.508Z,22.6700
2023-04-09T12:20:22.808Z,22.7000
2023-04-09T12:21:25.221Z,22.7100
2023-04-09T12:22:27.351Z,22.7300
2023-04-09T12:23:27.512Z,22.7400
2023-04-09T12:24:29.826Z,22.7300
2023-04-09T12:25:32.057Z,22.7500
2023-04-09T12:26:34.418Z,22.7400
2023-04-09T12:27:36.581Z,22.7300
2023-04-09T12:28:38.891Z,22.7400
2023-04-09T12:29:41.167Z,22.7600
2023-04-09T12:30:41.308Z,22.7500